sensor_id;sensor_type;location;lat;lon;timestamp;temperature;humidity
47791;DHT22;33547;49.044;1.156;2023-05-10T00:01:07;10.20;99.90
47791;DHT22;33547;49.044;1.156;2023-05-10T00:03:33;10.10;99.90
47791;DHT22;33547;49.044;1.156;2023-05-10T00:05:58;10.10;99.90
47791;DHT22;33547;49.044;1.156;2023-05-10T00:08:24;10.10;99.90
47791;DHT22;33547;49.044;1.156;2023-05-10T00:10:50;9.90;99.90
47791;DHT22;33547;49.044;1.156;2023-05-10T00:13:15;9.90;99.90
47791;DHT22;33547;49.044;1.156;2023-05-10T00:15:41;10.00;99.90
47791;DHT22;33547;49.044;1.156;2023-05-10T00:18:06;10.00;99.90
47791;DHT22;33547;49.044;1.156;2023-05-10T00:20:32;10.00;99.90
47791;DHT22;33547;49.044;1.156;2023-05-10T00:22:58;9.90;99.90
47791;DHT22;33547;49.044;1.156;2023-05-10T00:25:23;9.70;99.90
47791;DHT22;33547;49.044;1.156;2023-05-10T00:27:49;9.90;99.90
47791;DHT22;33547;49.044;1.156;2023-05-10T00:30:15;9.80;99.90
47791;DHT22;33547;49.044;1.156;2023-05-10T00:32:40;9.90;99.90
47791;DHT22;33547;49.044;1.156;2023-05-10T00:35:06;9.90;99.90
47791;DHT22;33547;49.044;1.156;2023-05-10T00:37:32;9.90;99.90
47791;DHT22;33547;49.044;1.156;2023-05-10T00:39:58;9.90;99.90
47791;DHT22;33547;49.044;1.156;2023-05-10T00:42:24;10.00;99.90
47791;DHT22;33547;49.044;1.156;2023-05-10T00:44:49;10.00;99.90
47791;DHT22;33547;49.044;1.156;2023-05-10T00:47:16;9.90;99.90
47791;DHT22;33547;49.044;1.156;2023-05-10T00:49:42;10.00;99.90
47791;DHT22;33547;49.044;1.156;2023-05-10T00:52:09;10.10;99.90
47791;DHT22;33547;49.044;1.156;2023-05-10T00:54:34;10.20;99.90
47791;DHT22;33547;49.044;1.156;2023-05-10T00:57:00;10.20;99.90
47791;DHT22;33547;49.044;1.156;2023-05-10T00:59:26;10.20;99.90
47791;DHT22;33547;49.044;1.156;2023-05-10T01:01:53;10.20;99.90
47791;DHT22;33547;49.044;1.156;2023-05-10T01:04:19;10.20;99.90
47791;DHT22;33547;49.044;1.156;2023-05-10T01:06:47;10.10;99.90
47791;DHT22;33547;49.044;1.156;2023-05-10T01:09:12;10.00;99.90
47791;DHT22;33547;49.044;1.156;2023-05-10T01:11:38;10.10;99.90
47791;DHT22;33547;49.044;1.156;2023-05-10T01:14:05;10.00;99.90
47791;DHT22;33547;49.044;1.156;2023-05-10T01:16:36;10.10;99.90
47791;DHT22;33547;49.044;1.156;2023-05-10T01:19:12;10.00;99.90
47791;DHT22;33547;49.044;1.156;2023-05-10T01:33:50;10.10;99.90
47791;DHT22;33547;49.044;1.156;2023-05-10T01:36:30;10.00;99.90
47791;DHT22;33547;49.044;1.156;2023-05-10T01:39:07;10.10;99.90
47791;DHT22;33547;49.044;1.156;2023-05-10T01:42:04;10.20;99.90
47791;DHT22;33547;49.044;1.156;2023-05-10T01:44:54;10.10;99.90
47791;DHT22;33547;49.044;1.156;2023-05-10T01:47:38;10.10;99.90
47791;DHT22;33547;49.044;1.156;2023-05-10T01:50:19;10.10;99.90
47791;DHT22;33547;49.044;1.156;2023-05-10T01:52:51;10.10;99.90
47791;DHT22;33547;49.044;1.156;2023-05-10T01:55:20;10.10;99.90
47791;DHT22;33547;49.044;1.156;2023-05-10T01:57:48;10.20;99.90
47791;DHT22;33547;49.044;1.156;2023-05-10T02:00:16;10.10;99.90
47791;DHT22;33547;49.044;1.156;2023-05-10T02:02:47;10.10;99.90
47791;DHT22;33547;49.044;1.156;2023-05-10T02:05:15;10.20;99.90
47791;DHT22;33547;49.044;1.156;2023-05-10T02:07:42;10.10;99.90
47791;DHT22;33547;49.044;1.156;2023-05-10T02:10:09;10.10;99.90
47791;DHT22;33547;49.044;1.156;2023-05-10T02:12:39;10.20;99.90
47791;DHT22;33547;49.044;1.156;2023-05-10T02:15:07;10.20;99.90
47791;DHT22;33547;49.044;1.156;2023-05-10T02:17:35;10.30;99.90
47791;DHT22;33547;49.044;1.156;2023-05-10T02:20:03;10.30;99.90
47791;DHT22;33547;49.044;1.156;2023-05-10T02:22:31;10.20;99.90
47791;DHT22;33547;49.044;1.156;2023-05-10T02:24:58;10.20;99.90
47791;DHT22;33547;49.044;1.156;2023-05-10T02:27:26;10.20;99.90
47791;DHT22;33547;49.044;1.156;2023-05-10T02:29:53;10.20;99.90
47791;DHT22;33547;49.044;1.156;2023-05-10T02:32:21;10.20;99.90
47791;DHT22;33547;49.044;1.156;2023-05-10T02:34:48;10.20;99.90
47791;DHT22;33547;49.044;1.156;2023-05-10T02:37:19;10.20;99.90
47791;DHT22;33547;49.044;1.156;2023-05-10T02:39:49;10.20;99.90
47791;DHT22;33547;49.044;1.156;2023-05-10T02:42:18;10.20;99.90
47791;DHT22;33547;49.044;1.156;2023-05-10T02:44:48;10.20;99.90
47791;DHT22;33547;49.044;1.156;2023-05-10T02:47:14;10.30;99.90
47791;DHT22;33547;49.044;1.156;2023-05-10T02:49:40;10.20;99.90
47791;DHT22;33547;49.044;1.156;2023-05-10T02:52:07;10.30;99.90
47791;DHT22;33547;49.044;1.156;2023-05-10T02:54:39;10.30;99.90
47791;DHT22;33547;49.044;1.156;2023-05-10T02:57:07;10.30;99.90
47791;DHT22;33547;49.044;1.156;2023-05-10T02:59:34;10.30;99.90
47791;DHT22;33547;49.044;1.156;2023-05-10T03:02:00;10.30;99.90
47791;DHT22;33547;49.044;1.156;2023-05-10T03:04:27;10.40;99.90
47791;DHT22;33547;49.044;1.156;2023-05-10T03:06:52;10.50;99.90
47791;DHT22;33547;49.044;1.156;2023-05-10T03:09:18;10.50;99.90
47791;DHT22;33547;49.044;1.156;2023-05-10T03:14:54;10.60;99.90
47791;DHT22;33547;49.044;1.156;2023-05-10T03:20:20;10.70;99.90
47791;DHT22;33547;49.044;1.156;2023-05-10T03:22:51;10.60;99.90
47791;DHT22;33547;49.044;1.156;2023-05-10T03:25:19;10.60;99.90
47791;DHT22;33547;49.044;1.156;2023-05-10T03:27:46;10.70;99.90
47791;DHT22;33547;49.044;1.156;2023-05-10T03:30:13;10.70;99.90
47791;DHT22;33547;49.044;1.156;2023-05-10T03:32:39;10.70;99.90
47791;DHT22;33547;49.044;1.156;2023-05-10T03:35:12;10.70;99.90
47791;DHT22;33547;49.044;1.156;2023-05-10T03:37:38;10.70;99.90
47791;DHT22;33547;49.044;1.156;2023-05-10T03:40:04;10.70;99.90
47791;DHT22;33547;49.044;1.156;2023-05-10T03:42:30;10.70;99.90
47791;DHT22;33547;49.044;1.156;2023-05-10T03:44:56;10.70;99.90
47791;DHT22;33547;49.044;1.156;2023-05-10T03:47:22;10.70;99.90
47791;DHT22;33547;49.044;1.156;2023-05-10T03:49:47;10.70;99.90
47791;DHT22;33547;49.044;1.156;2023-05-10T03:52:14;10.80;99.90
47791;DHT22;33547;49.044;1.156;2023-05-10T03:54:39;10.80;99.90
47791;DHT22;33547;49.044;1.156;2023-05-10T03:57:05;10.80;99.90
47791;DHT22;33547;49.044;1.156;2023-05-10T03:59:31;10.80;99.90
47791;DHT22;33547;49.044;1.156;2023-05-10T04:01:56;10.80;99.90
47791;DHT22;33547;49.044;1.156;2023-05-10T04:04:22;10.90;99.90
47791;DHT22;33547;49.044;1.156;2023-05-10T04:06:48;10.90;99.90
47791;DHT22;33547;49.044;1.156;2023-05-10T04:09:14;10.90;99.90
47791;DHT22;33547;49.044;1.156;2023-05-10T04:11:39;10.90;99.90
47791;DHT22;33547;49.044;1.156;2023-05-10T04:14:05;11.00;99.90
47791;DHT22;33547;49.044;1.156;2023-05-10T04:16:31;10.90;99.90
47791;DHT22;33547;49.044;1.156;2023-05-10T04:18:56;10.90;99.90
47791;DHT22;33547;49.044;1.156;2023-05-10T04:21:22;10.90;99.90
47791;DHT22;33547;49.044;1.156;2023-05-10T04:23:48;10.90;99.90
47791;DHT22;33547;49.044;1.156;2023-05-10T04:26:14;10.90;99.90
47791;DHT22;33547;49.044;1.156;2023-05-10T04:28:39;10.90;99.90
47791;DHT22;33547;49.044;1.156;2023-05-10T04:31:07;11.00;99.90
47791;DHT22;33547;49.044;1.156;2023-05-10T04:33:33;11.00;99.90
47791;DHT22;33547;49.044;1.156;2023-05-10T04:35:59;11.10;99.90
47791;DHT22;33547;49.044;1.156;2023-05-10T04:38:26;11.20;99.90
47791;DHT22;33547;49.044;1.156;2023-05-10T04:40:52;11.10;99.90
47791;DHT22;33547;49.044;1.156;2023-05-10T04:43:18;11.20;99.90
47791;DHT22;33547;49.044;1.156;2023-05-10T04:45:44;11.20;99.90
47791;DHT22;33547;49.044;1.156;2023-05-10T04:48:09;11.20;99.90
47791;DHT22;33547;49.044;1.156;2023-05-10T04:50:35;11.20;99.90
47791;DHT22;33547;49.044;1.156;2023-05-10T04:53:01;11.30;99.90
47791;DHT22;33547;49.044;1.156;2023-05-10T04:55:26;11.30;99.90
47791;DHT22;33547;49.044;1.156;2023-05-10T04:57:52;11.30;99.90
47791;DHT22;33547;49.044;1.156;2023-05-10T05:00:20;11.40;99.90
47791;DHT22;33547;49.044;1.156;2023-05-10T05:02:46;11.40;99.90
47791;DHT22;33547;49.044;1.156;2023-05-10T05:05:12;11.50;99.90
47791;DHT22;33547;49.044;1.156;2023-05-10T05:07:38;11.40;99.90
47791;DHT22;33547;49.044;1.156;2023-05-10T05:10:05;11.40;99.90
47791;DHT22;33547;49.044;1.156;2023-05-10T05:12:31;11.50;99.90
47791;DHT22;33547;49.044;1.156;2023-05-10T05:14:57;11.50;99.90
47791;DHT22;33547;49.044;1.156;2023-05-10T05:17:22;11.50;99.90
47791;DHT22;33547;49.044;1.156;2023-05-10T05:19:48;11.50;99.90
47791;DHT22;33547;49.044;1.156;2023-05-10T05:22:14;11.60;99.90
47791;DHT22;33547;49.044;1.156;2023-05-10T05:24:39;11.60;99.90
47791;DHT22;33547;49.044;1.156;2023-05-10T05:27:05;11.90;99.90
47791;DHT22;33547;49.044;1.156;2023-05-10T05:29:31;11.90;99.90
47791;DHT22;33547;49.044;1.156;2023-05-10T05:31:57;11.90;99.90
47791;DHT22;33547;49.044;1.156;2023-05-10T05:34:22;11.70;99.90
47791;DHT22;33547;49.044;1.156;2023-05-10T05:36:49;11.80;99.90
47791;DHT22;33547;49.044;1.156;2023-05-10T05:39:15;11.70;99.90
47791;DHT22;33547;49.044;1.156;2023-05-10T05:41:41;11.90;99.90
47791;DHT22;33547;49.044;1.156;2023-05-10T05:44:06;11.70;99.90
47791;DHT22;33547;49.044;1.156;2023-05-10T05:46:32;11.80;99.90
47791;DHT22;33547;49.044;1.156;2023-05-10T05:48:57;11.90;99.90
47791;DHT22;33547;49.044;1.156;2023-05-10T05:51:23;11.60;99.90
47791;DHT22;33547;49.044;1.156;2023-05-10T05:53:49;11.80;99.90
47791;DHT22;33547;49.044;1.156;2023-05-10T05:56:14;11.90;99.90
47791;DHT22;33547;49.044;1.156;2023-05-10T05:58:40;12.00;99.90
47791;DHT22;33547;49.044;1.156;2023-05-10T06:01:06;11.90;99.90
47791;DHT22;33547;49.044;1.156;2023-05-10T06:03:31;11.70;99.90
47791;DHT22;33547;49.044;1.156;2023-05-10T06:05:58;11.70;99.90
47791;DHT22;33547;49.044;1.156;2023-05-10T06:08:23;11.80;99.90
47791;DHT22;33547;49.044;1.156;2023-05-10T06:10:49;11.80;99.90
47791;DHT22;33547;49.044;1.156;2023-05-10T06:13:15;11.70;99.90
47791;DHT22;33547;49.044;1.156;2023-05-10T06:15:40;11.90;99.90
47791;DHT22;33547;49.044;1.156;2023-05-10T06:18:06;11.90;99.90
47791;DHT22;33547;49.044;1.156;2023-05-10T06:20:32;11.90;99.90
47791;DHT22;33547;49.044;1.156;2023-05-10T06:22:58;11.90;99.90
47791;DHT22;33547;49.044;1.156;2023-05-10T06:25:24;11.90;99.90
47791;DHT22;33547;49.044;1.156;2023-05-10T06:27:49;11.80;99.90
47791;DHT22;33547;49.044;1.156;2023-05-10T06:30:16;11.60;99.90
47791;DHT22;33547;49.044;1.156;2023-05-10T06:32:41;11.70;99.90
47791;DHT22;33547;49.044;1.156;2023-05-10T06:35:09;11.80;99.90
47791;DHT22;33547;49.044;1.156;2023-05-10T06:37:34;11.90;99.90
47791;DHT22;33547;49.044;1.156;2023-05-10T06:40:00;11.90;99.90
47791;DHT22;33547;49.044;1.156;2023-05-10T06:42:27;11.80;99.90
47791;DHT22;33547;49.044;1.156;2023-05-10T06:44:52;11.80;99.90
47791;DHT22;33547;49.044;1.156;2023-05-10T06:47:18;11.90;99.90
47791;DHT22;33547;49.044;1.156;2023-05-10T06:49:44;11.90;99.90
47791;DHT22;33547;49.044;1.156;2023-05-10T06:52:09;11.80;99.90
47791;DHT22;33547;49.044;1.156;2023-05-10T06:54:35;12.00;99.90
47791;DHT22;33547;49.044;1.156;2023-05-10T06:57:01;12.10;99.90
47791;DHT22;33547;49.044;1.156;2023-05-10T06:59:28;12.10;99.90
47791;DHT22;33547;49.044;1.156;2023-05-10T07:01:54;12.20;99.90
47791;DHT22;33547;49.044;1.156;2023-05-10T07:04:20;12.10;99.90
47791;DHT22;33547;49.044;1.156;2023-05-10T07:06:45;12.10;99.90
47791;DHT22;33547;49.044;1.156;2023-05-10T07:09:11;12.10;99.90
47791;DHT22;33547;49.044;1.156;2023-05-10T07:11:38;12.10;99.90
47791;DHT22;33547;49.044;1.156;2023-05-10T07:14:04;12.10;99.90
47791;DHT22;33547;49.044;1.156;2023-05-10T07:16:30;12.30;99.90
47791;DHT22;33547;49.044;1.156;2023-05-10T07:18:56;12.30;99.90
47791;DHT22;33547;49.044;1.156;2023-05-10T07:21:21;12.00;99.90
47791;DHT22;33547;49.044;1.156;2023-05-10T07:23:49;12.00;99.90
47791;DHT22;33547;49.044;1.156;2023-05-10T07:26:15;12.20;99.90
47791;DHT22;33547;49.044;1.156;2023-05-10T07:28:41;12.20;99.90
47791;DHT22;33547;49.044;1.156;2023-05-10T07:31:07;12.30;99.90
47791;DHT22;33547;49.044;1.156;2023-05-10T07:33:32;12.40;99.90
47791;DHT22;33547;49.044;1.156;2023-05-10T07:35:58;12.40;99.90
47791;DHT22;33547;49.044;1.156;2023-05-10T07:38:24;12.40;99.90
47791;DHT22;33547;49.044;1.156;2023-05-10T07:40:49;12.60;99.90
47791;DHT22;33547;49.044;1.156;2023-05-10T07:43:15;12.50;99.90
47791;DHT22;33547;49.044;1.156;2023-05-10T07:45:41;12.70;99.90
47791;DHT22;33547;49.044;1.156;2023-05-10T07:48:07;12.80;99.90
47791;DHT22;33547;49.044;1.156;2023-05-10T07:50:32;13.00;99.90
47791;DHT22;33547;49.044;1.156;2023-05-10T07:52:58;12.80;99.90
47791;DHT22;33547;49.044;1.156;2023-05-10T07:55:24;12.70;99.90
47791;DHT22;33547;49.044;1.156;2023-05-10T07:57:49;12.80;99.90
47791;DHT22;33547;49.044;1.156;2023-05-10T08:00:19;12.70;99.90
47791;DHT22;33547;49.044;1.156;2023-05-10T08:02:45;12.90;99.90
47791;DHT22;33547;49.044;1.156;2023-05-10T08:05:11;12.90;99.90
47791;DHT22;33547;49.044;1.156;2023-05-10T08:07:37;12.70;99.90
47791;DHT22;33547;49.044;1.156;2023-05-10T08:10:03;12.70;99.90
47791;DHT22;33547;49.044;1.156;2023-05-10T08:12:28;12.80;99.90
47791;DHT22;33547;49.044;1.156;2023-05-10T08:14:54;12.90;99.90
47791;DHT22;33547;49.044;1.156;2023-05-10T08:17:20;13.00;99.90
47791;DHT22;33547;49.044;1.156;2023-05-10T08:19:46;13.00;99.90
47791;DHT22;33547;49.044;1.156;2023-05-10T08:22:12;12.90;99.90
47791;DHT22;33547;49.044;1.156;2023-05-10T08:24:37;13.00;99.90
47791;DHT22;33547;49.044;1.156;2023-05-10T08:27:07;13.30;99.90
47791;DHT22;33547;49.044;1.156;2023-05-10T08:29:32;13.60;99.90
47791;DHT22;33547;49.044;1.156;2023-05-10T08:31:58;13.70;99.90
47791;DHT22;33547;49.044;1.156;2023-05-10T08:34:24;13.80;99.90
47791;DHT22;33547;49.044;1.156;2023-05-10T08:36:50;13.80;99.90
47791;DHT22;33547;49.044;1.156;2023-05-10T08:39:16;13.80;99.90
47791;DHT22;33547;49.044;1.156;2023-05-10T08:41:44;13.80;99.90
47791;DHT22;33547;49.044;1.156;2023-05-10T08:44:10;13.80;99.90
47791;DHT22;33547;49.044;1.156;2023-05-10T08:46:37;13.70;99.90
47791;DHT22;33547;49.044;1.156;2023-05-10T08:49:07;13.90;99.90
47791;DHT22;33547;49.044;1.156;2023-05-10T08:51:36;13.60;99.90
47791;DHT22;33547;49.044;1.156;2023-05-10T08:54:06;14.00;99.90
47791;DHT22;33547;49.044;1.156;2023-05-10T08:56:32;14.00;99.90
47791;DHT22;33547;49.044;1.156;2023-05-10T08:58:57;14.10;99.90
47791;DHT22;33547;49.044;1.156;2023-05-10T09:01:24;13.80;99.90
47791;DHT22;33547;49.044;1.156;2023-05-10T09:03:50;13.90;99.90
47791;DHT22;33547;49.044;1.156;2023-05-10T09:06:16;14.20;99.90
47791;DHT22;33547;49.044;1.156;2023-05-10T09:08:42;14.20;99.90
47791;DHT22;33547;49.044;1.156;2023-05-10T09:11:09;14.40;99.90
47791;DHT22;33547;49.044;1.156;2023-05-10T09:13:36;14.40;99.90
47791;DHT22;33547;49.044;1.156;2023-05-10T09:16:03;14.60;99.90
47791;DHT22;33547;49.044;1.156;2023-05-10T09:18:29;14.50;99.90
47791;DHT22;33547;49.044;1.156;2023-05-10T09:20:54;14.40;99.90
47791;DHT22;33547;49.044;1.156;2023-05-10T09:23:20;14.60;99.90
47791;DHT22;33547;49.044;1.156;2023-05-10T09:25:46;14.80;99.90
47791;DHT22;33547;49.044;1.156;2023-05-10T09:28:12;15.10;99.90
47791;DHT22;33547;49.044;1.156;2023-05-10T09:30:38;15.10;99.90
47791;DHT22;33547;49.044;1.156;2023-05-10T09:33:04;15.30;99.90
47791;DHT22;33547;49.044;1.156;2023-05-10T09:35:32;15.60;99.90
47791;DHT22;33547;49.044;1.156;2023-05-10T09:38:01;15.60;99.90
47791;DHT22;33547;49.044;1.156;2023-05-10T09:40:28;17.30;99.90
47791;DHT22;33547;49.044;1.156;2023-05-10T09:42:58;18.40;99.90
47791;DHT22;33547;49.044;1.156;2023-05-10T09:45:26;19.40;99.90
47791;DHT22;33547;49.044;1.156;2023-05-10T09:47:52;19.50;99.90
47791;DHT22;33547;49.044;1.156;2023-05-10T09:50:19;20.00;99.90
47791;DHT22;33547;49.044;1.156;2023-05-10T09:52:57;19.70;99.90
47791;DHT22;33547;49.044;1.156;2023-05-10T09:55:44;18.80;99.90
47791;DHT22;33547;49.044;1.156;2023-05-10T09:58:12;19.20;99.90
47791;DHT22;33547;49.044;1.156;2023-05-10T10:00:47;19.20;99.90
47791;DHT22;33547;49.044;1.156;2023-05-10T10:03:18;18.20;99.90
47791;DHT22;33547;49.044;1.156;2023-05-10T10:05:45;17.50;99.90
47791;DHT22;33547;49.044;1.156;2023-05-10T10:08:12;17.10;99.90
47791;DHT22;33547;49.044;1.156;2023-05-10T10:10:39;17.70;99.90
47791;DHT22;33547;49.044;1.156;2023-05-10T10:13:09;19.40;99.90
47791;DHT22;33547;49.044;1.156;2023-05-10T10:15:35;19.90;99.90
47791;DHT22;33547;49.044;1.156;2023-05-10T10:18:01;20.60;99.90
47791;DHT22;33547;49.044;1.156;2023-05-10T10:20:28;21.10;99.90
47791;DHT22;33547;49.044;1.156;2023-05-10T10:22:54;21.80;99.90
47791;DHT22;33547;49.044;1.156;2023-05-10T10:25:21;22.10;99.90
47791;DHT22;33547;49.044;1.156;2023-05-10T10:30:43;20.80;99.90
47791;DHT22;33547;49.044;1.156;2023-05-10T10:35:59;20.50;99.90
47791;DHT22;33547;49.044;1.156;2023-05-10T10:38:25;21.00;99.90
47791;DHT22;33547;49.044;1.156;2023-05-10T10:41:10;21.70;99.90
47791;DHT22;33547;49.044;1.156;2023-05-10T10:43:36;20.80;99.90
47791;DHT22;33547;49.044;1.156;2023-05-10T10:46:17;20.40;99.90
47791;DHT22;33547;49.044;1.156;2023-05-10T10:49:08;19.60;99.90
47791;DHT22;33547;49.044;1.156;2023-05-10T10:51:38;19.30;99.90
47791;DHT22;33547;49.044;1.156;2023-05-10T10:54:10;19.20;99.90
47791;DHT22;33547;49.044;1.156;2023-05-10T10:56:36;18.90;99.90
47791;DHT22;33547;49.044;1.156;2023-05-10T10:59:01;18.60;99.90
47791;DHT22;33547;49.044;1.156;2023-05-10T11:01:33;19.80;99.90
47791;DHT22;33547;49.044;1.156;2023-05-10T11:06:30;20.00;99.90
47791;DHT22;33547;49.044;1.156;2023-05-10T11:09:09;20.60;99.90
47791;DHT22;33547;49.044;1.156;2023-05-10T11:11:36;20.30;99.90
47791;DHT22;33547;49.044;1.156;2023-05-10T11:14:13;20.00;99.90
47791;DHT22;33547;49.044;1.156;2023-05-10T11:16:43;19.10;99.90
47791;DHT22;33547;49.044;1.156;2023-05-10T11:19:11;18.60;99.90
47791;DHT22;33547;49.044;1.156;2023-05-10T11:22:12;17.90;99.90
47791;DHT22;33547;49.044;1.156;2023-05-10T11:24:39;17.40;99.90
47791;DHT22;33547;49.044;1.156;2023-05-10T11:27:05;17.20;99.90
47791;DHT22;33547;49.044;1.156;2023-05-10T11:29:31;17.30;99.90
47791;DHT22;33547;49.044;1.156;2023-05-10T11:31:58;17.80;99.90
47791;DHT22;33547;49.044;1.156;2023-05-10T11:34:26;18.90;99.90
47791;DHT22;33547;49.044;1.156;2023-05-10T11:36:54;18.40;99.90
47791;DHT22;33547;49.044;1.156;2023-05-10T11:39:20;18.80;99.90
47791;DHT22;33547;49.044;1.156;2023-05-10T11:41:49;19.50;99.90
47791;DHT22;33547;49.044;1.156;2023-05-10T11:44:15;20.20;99.90
47791;DHT22;33547;49.044;1.156;2023-05-10T11:46:41;19.70;99.90
47791;DHT22;33547;49.044;1.156;2023-05-10T11:49:07;19.70;99.90
47791;DHT22;33547;49.044;1.156;2023-05-10T11:51:36;20.10;99.90
47791;DHT22;33547;49.044;1.156;2023-05-10T11:54:07;20.60;99.90
47791;DHT22;33547;49.044;1.156;2023-05-10T11:56:39;20.50;99.90
47791;DHT22;33547;49.044;1.156;2023-05-10T11:59:05;19.60;99.90
47791;DHT22;33547;49.044;1.156;2023-05-10T12:01:31;19.20;99.90
47791;DHT22;33547;49.044;1.156;2023-05-10T12:03:57;19.50;99.90
47791;DHT22;33547;49.044;1.156;2023-05-10T12:06:31;19.40;99.90
47791;DHT22;33547;49.044;1.156;2023-05-10T12:08:58;19.10;99.90
47791;DHT22;33547;49.044;1.156;2023-05-10T12:11:28;19.20;99.90
47791;DHT22;33547;49.044;1.156;2023-05-10T12:13:55;19.20;99.90
47791;DHT22;33547;49.044;1.156;2023-05-10T12:16:23;19.20;99.90
47791;DHT22;33547;49.044;1.156;2023-05-10T12:18:53;19.50;99.90
47791;DHT22;33547;49.044;1.156;2023-05-10T12:21:20;19.70;99.90
47791;DHT22;33547;49.044;1.156;2023-05-10T12:23:48;19.50;99.90
47791;DHT22;33547;49.044;1.156;2023-05-10T12:26:15;19.60;99.90
47791;DHT22;33547;49.044;1.156;2023-05-10T12:28:40;20.30;99.90
47791;DHT22;33547;49.044;1.156;2023-05-10T12:31:07;20.40;99.90
47791;DHT22;33547;49.044;1.156;2023-05-10T12:33:41;20.00;99.90
47791;DHT22;33547;49.044;1.156;2023-05-10T12:36:09;19.70;99.90
47791;DHT22;33547;49.044;1.156;2023-05-10T12:38:37;19.90;99.90
47791;DHT22;33547;49.044;1.156;2023-05-10T12:41:08;20.00;99.90
47791;DHT22;33547;49.044;1.156;2023-05-10T12:43:35;20.00;99.90
47791;DHT22;33547;49.044;1.156;2023-05-10T12:46:08;20.10;99.90
47791;DHT22;33547;49.044;1.156;2023-05-10T12:48:35;19.80;99.90
47791;DHT22;33547;49.044;1.156;2023-05-10T12:51:01;20.20;99.90
47791;DHT22;33547;49.044;1.156;2023-05-10T12:53:27;20.70;99.90
47791;DHT22;33547;49.044;1.156;2023-05-10T12:55:53;20.50;99.90
47791;DHT22;33547;49.044;1.156;2023-05-10T12:58:19;20.80;99.90
47791;DHT22;33547;49.044;1.156;2023-05-10T13:00:45;20.50;99.90
47791;DHT22;33547;49.044;1.156;2023-05-10T13:03:11;20.50;99.90
47791;DHT22;33547;49.044;1.156;2023-05-10T13:05:37;20.60;99.90
47791;DHT22;33547;49.044;1.156;2023-05-10T13:08:02;20.00;99.90
47791;DHT22;33547;49.044;1.156;2023-05-10T13:10:31;19.60;99.90
47791;DHT22;33547;49.044;1.156;2023-05-10T13:12:58;19.50;99.90
47791;DHT22;33547;49.044;1.156;2023-05-10T13:15:24;19.30;99.90
47791;DHT22;33547;49.044;1.156;2023-05-10T13:17:50;19.10;99.90
47791;DHT22;33547;49.044;1.156;2023-05-10T13:20:16;19.10;99.90
47791;DHT22;33547;49.044;1.156;2023-05-10T13:22:43;19.20;99.90
47791;DHT22;33547;49.044;1.156;2023-05-10T13:25:09;19.50;99.90
47791;DHT22;33547;49.044;1.156;2023-05-10T13:27:35;19.80;99.90
47791;DHT22;33547;49.044;1.156;2023-05-10T13:30:02;19.90;99.90
47791;DHT22;33547;49.044;1.156;2023-05-10T13:32:28;19.80;99.90
47791;DHT22;33547;49.044;1.156;2023-05-10T13:34:55;19.70;99.90
47791;DHT22;33547;49.044;1.156;2023-05-10T13:37:21;19.50;99.90
47791;DHT22;33547;49.044;1.156;2023-05-10T13:39:47;19.10;99.90
47791;DHT22;33547;49.044;1.156;2023-05-10T13:42:13;18.80;99.90
47791;DHT22;33547;49.044;1.156;2023-05-10T13:44:38;19.10;99.90
47791;DHT22;33547;49.044;1.156;2023-05-10T13:47:05;19.30;99.90
47791;DHT22;33547;49.044;1.156;2023-05-10T13:49:30;19.30;99.90
47791;DHT22;33547;49.044;1.156;2023-05-10T13:51:56;19.50;99.90
47791;DHT22;33547;49.044;1.156;2023-05-10T13:54:22;19.60;99.90
47791;DHT22;33547;49.044;1.156;2023-05-10T13:56:48;19.80;99.90
47791;DHT22;33547;49.044;1.156;2023-05-10T13:59:14;19.80;99.90
47791;DHT22;33547;49.044;1.156;2023-05-10T14:01:40;19.90;99.90
47791;DHT22;33547;49.044;1.156;2023-05-10T14:04:06;19.60;99.90
47791;DHT22;33547;49.044;1.156;2023-05-10T14:06:35;19.70;99.90
47791;DHT22;33547;49.044;1.156;2023-05-10T14:09:02;19.90;99.90
47791;DHT22;33547;49.044;1.156;2023-05-10T14:11:27;19.90;99.90
47791;DHT22;33547;49.044;1.156;2023-05-10T14:13:53;19.80;99.90
47791;DHT22;33547;49.044;1.156;2023-05-10T14:16:19;19.60;99.90
47791;DHT22;33547;49.044;1.156;2023-05-10T14:18:45;19.80;99.90
47791;DHT22;33547;49.044;1.156;2023-05-10T14:21:11;19.60;99.90
47791;DHT22;33547;49.044;1.156;2023-05-10T14:23:37;19.10;99.90
47791;DHT22;33547;49.044;1.156;2023-05-10T14:26:03;18.90;99.90
47791;DHT22;33547;49.044;1.156;2023-05-10T14:28:28;18.70;99.90
47791;DHT22;33547;49.044;1.156;2023-05-10T14:30:54;18.70;99.90
47791;DHT22;33547;49.044;1.156;2023-05-10T14:33:20;19.00;99.90
47791;DHT22;33547;49.044;1.156;2023-05-10T14:35:46;19.50;99.90
47791;DHT22;33547;49.044;1.156;2023-05-10T14:38:12;19.60;99.90
47791;DHT22;33547;49.044;1.156;2023-05-10T14:40:38;19.70;99.90
47791;DHT22;33547;49.044;1.156;2023-05-10T14:43:04;19.90;99.90
47791;DHT22;33547;49.044;1.156;2023-05-10T14:45:30;20.20;99.90
47791;DHT22;33547;49.044;1.156;2023-05-10T14:47:55;19.70;99.90
47791;DHT22;33547;49.044;1.156;2023-05-10T14:50:21;19.40;99.90
47791;DHT22;33547;49.044;1.156;2023-05-10T14:52:47;19.00;99.90
47791;DHT22;33547;49.044;1.156;2023-05-10T14:55:13;19.10;99.90
47791;DHT22;33547;49.044;1.156;2023-05-10T14:57:38;18.80;99.90
47791;DHT22;33547;49.044;1.156;2023-05-10T15:00:04;18.30;99.90
47791;DHT22;33547;49.044;1.156;2023-05-10T15:02:31;18.20;99.90
47791;DHT22;33547;49.044;1.156;2023-05-10T15:04:57;17.90;99.90
47791;DHT22;33547;49.044;1.156;2023-05-10T15:07:23;18.40;99.90
47791;DHT22;33547;49.044;1.156;2023-05-10T15:09:50;18.60;99.90
47791;DHT22;33547;49.044;1.156;2023-05-10T15:12:17;18.90;99.90
47791;DHT22;33547;49.044;1.156;2023-05-10T15:14:43;19.00;99.90
47791;DHT22;33547;49.044;1.156;2023-05-10T15:17:08;19.00;99.90
47791;DHT22;33547;49.044;1.156;2023-05-10T15:19:34;18.70;99.90
47791;DHT22;33547;49.044;1.156;2023-05-10T15:24:35;18.20;99.90
47791;DHT22;33547;49.044;1.156;2023-05-10T15:27:01;18.10;99.90
47791;DHT22;33547;49.044;1.156;2023-05-10T15:29:26;18.10;99.90
47791;DHT22;33547;49.044;1.156;2023-05-10T15:31:52;17.90;99.90
47791;DHT22;33547;49.044;1.156;2023-05-10T15:34:18;18.20;99.90
47791;DHT22;33547;49.044;1.156;2023-05-10T15:36:44;18.40;99.90
47791;DHT22;33547;49.044;1.156;2023-05-10T15:39:11;18.60;99.90
47791;DHT22;33547;49.044;1.156;2023-05-10T15:41:37;18.70;99.90
47791;DHT22;33547;49.044;1.156;2023-05-10T15:44:03;18.60;99.90
47791;DHT22;33547;49.044;1.156;2023-05-10T15:46:29;18.60;99.90
47791;DHT22;33547;49.044;1.156;2023-05-10T15:48:54;18.50;99.90
47791;DHT22;33547;49.044;1.156;2023-05-10T15:51:20;18.20;99.90
47791;DHT22;33547;49.044;1.156;2023-05-10T15:53:46;17.90;99.90
47791;DHT22;33547;49.044;1.156;2023-05-10T15:56:12;17.80;99.90
47791;DHT22;33547;49.044;1.156;2023-05-10T15:58:39;18.00;99.90
47791;DHT22;33547;49.044;1.156;2023-05-10T16:01:04;17.90;99.90